sensor_id;sensor_type;location;lat;lon;timestamp;P1;durP1;ratioP1;P2;durP2;ratioP2
45848;SDS011;31567;54.600;9.842;2022-10-30T00:01:24;50.78;;;25.60;;
45848;SDS011;31567;54.600;9.842;2022-10-30T00:05:03;49.40;;;25.13;;
45848;SDS011;31567;54.600;9.842;2022-10-30T00:08:43;41.75;;;23.92;;
45848;SDS011;31567;54.600;9.842;2022-10-30T00:12:23;39.85;;;23.65;;
45848;SDS011;31567;54.600;9.842;2022-10-30T00:16:04;37.90;;;22.63;;
45848;SDS011;31567;54.600;9.842;2022-10-30T00:19:44;42.80;;;23.58;;
45848;SDS011;31567;54.600;9.842;2022-10-30T00:23:24;38.95;;;23.67;;
45848;SDS011;31567;54.600;9.842;2022-10-30T00:27:03;47.20;;;23.65;;
45848;SDS011;31567;54.600;9.842;2022-10-30T00:30:43;48.28;;;24.60;;
45848;SDS011;31567;54.600;9.842;2022-10-30T00:34:23;44.10;;;24.60;;
45848;SDS011;31567;54.600;9.842;2022-10-30T00:38:02;46.88;;;23.20;;
45848;SDS011;31567;54.600;9.842;2022-10-30T00:41:42;51.35;;;24.25;;
45848;SDS011;31567;54.600;9.842;2022-10-30T00:45:21;37.72;;;23.33;;
45848;SDS011;31567;54.600;9.842;2022-10-30T00:49:03;42.72;;;24.88;;
45848;SDS011;31567;54.600;9.842;2022-10-30T00:52:53;38.83;;;22.55;;
45848;SDS011;31567;54.600;9.842;2022-10-30T00:56:37;46.08;;;24.02;;
45848;SDS011;31567;54.600;9.842;2022-10-30T01:00:18;41.90;;;22.48;;
45848;SDS011;31567;54.600;9.842;2022-10-30T01:03:59;44.08;;;24.15;;
45848;SDS011;31567;54.600;9.842;2022-10-30T01:07:41;47.75;;;23.55;;
45848;SDS011;31567;54.600;9.842;2022-10-30T01:11:20;40.15;;;22.92;;
45848;SDS011;31567;54.600;9.842;2022-10-30T01:15:00;44.78;;;22.90;;
45848;SDS011;31567;54.600;9.842;2022-10-30T01:26:37;40.33;;;24.20;;
45848;SDS011;31567;54.600;9.842;2022-10-30T01:30:42;44.00;;;24.85;;
45848;SDS011;31567;54.600;9.842;2022-10-30T01:42:36;49.90;;;27.40;;
45848;SDS011;31567;54.600;9.842;2022-10-30T01:54:37;49.47;;;28.17;;
45848;SDS011;31567;54.600;9.842;2022-10-30T01:58:19;49.65;;;28.15;;
45848;SDS011;31567;54.600;9.842;2022-10-30T02:02:05;52.22;;;29.40;;
45848;SDS011;31567;54.600;9.842;2022-10-30T02:05:46;54.08;;;29.67;;
45848;SDS011;31567;54.600;9.842;2022-10-30T02:09:28;59.28;;;30.85;;
45848;SDS011;31567;54.600;9.842;2022-10-30T02:13:08;53.10;;;30.77;;
45848;SDS011;31567;54.600;9.842;2022-10-30T02:16:48;56.38;;;30.25;;
45848;SDS011;31567;54.600;9.842;2022-10-30T02:20:29;54.10;;;31.00;;
45848;SDS011;31567;54.600;9.842;2022-10-30T02:24:10;50.70;;;29.55;;
45848;SDS011;31567;54.600;9.842;2022-10-30T02:27:49;52.75;;;32.38;;
45848;SDS011;31567;54.600;9.842;2022-10-30T02:31:29;51.38;;;30.02;;
45848;SDS011;31567;54.600;9.842;2022-10-30T02:35:08;52.97;;;31.77;;
45848;SDS011;31567;54.600;9.842;2022-10-30T02:38:48;63.60;;;32.88;;
45848;SDS011;31567;54.600;9.842;2022-10-30T02:42:27;63.67;;;32.35;;
45848;SDS011;31567;54.600;9.842;2022-10-30T02:46:07;56.78;;;30.88;;
45848;SDS011;31567;54.600;9.842;2022-10-30T02:49:47;60.40;;;32.47;;
45848;SDS011;31567;54.600;9.842;2022-10-30T02:53:26;62.53;;;31.95;;
45848;SDS011;31567;54.600;9.842;2022-10-30T02:57:07;53.15;;;31.45;;
45848;SDS011;31567;54.600;9.842;2022-10-30T03:00:47;66.95;;;35.40;;
45848;SDS011;31567;54.600;9.842;2022-10-30T03:04:27;55.90;;;31.90;;
45848;SDS011;31567;54.600;9.842;2022-10-30T03:08:06;62.35;;;33.47;;
45848;SDS011;31567;54.600;9.842;2022-10-30T03:11:46;64.18;;;34.05;;
45848;SDS011;31567;54.600;9.842;2022-10-30T03:15:25;56.85;;;33.10;;
45848;SDS011;31567;54.600;9.842;2022-10-30T03:19:05;70.40;;;34.25;;
45848;SDS011;31567;54.600;9.842;2022-10-30T03:22:45;66.90;;;34.10;;
45848;SDS011;31567;54.600;9.842;2022-10-30T03:26:24;57.63;;;33.40;;
45848;SDS011;31567;54.600;9.842;2022-10-30T03:30:04;62.05;;;33.85;;
45848;SDS011;31567;54.600;9.842;2022-10-30T03:33:44;62.83;;;34.50;;
45848;SDS011;31567;54.600;9.842;2022-10-30T03:37:24;64.45;;;36.55;;
45848;SDS011;31567;54.600;9.842;2022-10-30T03:41:04;68.43;;;34.42;;
45848;SDS011;31567;54.600;9.842;2022-10-30T03:44:44;58.05;;;33.97;;
45848;SDS011;31567;54.600;9.842;2022-10-30T03:48:24;65.40;;;34.10;;
45848;SDS011;31567;54.600;9.842;2022-10-30T03:52:05;64.72;;;34.97;;
45848;SDS011;31567;54.600;9.842;2022-10-30T03:55:44;55.72;;;33.40;;
45848;SDS011;31567;54.600;9.842;2022-10-30T03:59:24;62.10;;;34.83;;
45848;SDS011;31567;54.600;9.842;2022-10-30T04:03:07;53.33;;;30.73;;
45848;SDS011;31567;54.600;9.842;2022-10-30T04:06:47;54.35;;;31.83;;
45848;SDS011;31567;54.600;9.842;2022-10-30T04:10:27;49.53;;;28.52;;
45848;SDS011;31567;54.600;9.842;2022-10-30T04:14:07;45.15;;;28.90;;
45848;SDS011;31567;54.600;9.842;2022-10-30T04:17:47;58.08;;;32.22;;
45848;SDS011;31567;54.600;9.842;2022-10-30T04:21:28;49.28;;;28.45;;
45848;SDS011;31567;54.600;9.842;2022-10-30T04:25:08;46.65;;;29.98;;
45848;SDS011;31567;54.600;9.842;2022-10-30T04:28:47;45.22;;;28.08;;
45848;SDS011;31567;54.600;9.842;2022-10-30T04:32:27;55.20;;;30.67;;
45848;SDS011;31567;54.600;9.842;2022-10-30T04:36:06;54.13;;;31.48;;
45848;SDS011;31567;54.600;9.842;2022-10-30T04:39:46;51.90;;;31.17;;
45848;SDS011;31567;54.600;9.842;2022-10-30T04:43:27;47.33;;;29.50;;
45848;SDS011;31567;54.600;9.842;2022-10-30T04:47:06;44.20;;;28.75;;
45848;SDS011;31567;54.600;9.842;2022-10-30T04:50:46;53.20;;;30.70;;
45848;SDS011;31567;54.600;9.842;2022-10-30T04:54:26;48.92;;;27.85;;
45848;SDS011;31567;54.600;9.842;2022-10-30T04:58:07;45.05;;;26.95;;
45848;SDS011;31567;54.600;9.842;2022-10-30T05:01:47;43.97;;;27.73;;
45848;SDS011;31567;54.600;9.842;2022-10-30T05:05:27;40.30;;;26.17;;
45848;SDS011;31567;54.600;9.842;2022-10-30T05:09:07;54.58;;;30.52;;
45848;SDS011;31567;54.600;9.842;2022-10-30T05:12:47;44.08;;;28.52;;
45848;SDS011;31567;54.600;9.842;2022-10-30T05:16:29;42.72;;;28.45;;
45848;SDS011;31567;54.600;9.842;2022-10-30T05:20:08;48.60;;;28.42;;
45848;SDS011;31567;54.600;9.842;2022-10-30T05:23:48;44.25;;;28.65;;
45848;SDS011;31567;54.600;9.842;2022-10-30T05:27:28;53.85;;;29.30;;
45848;SDS011;31567;54.600;9.842;2022-10-30T05:31:07;42.53;;;27.55;;
45848;SDS011;31567;54.600;9.842;2022-10-30T05:34:47;46.70;;;27.65;;
45848;SDS011;31567;54.600;9.842;2022-10-30T05:38:26;40.63;;;26.25;;
45848;SDS011;31567;54.600;9.842;2022-10-30T05:42:06;44.42;;;26.23;;
45848;SDS011;31567;54.600;9.842;2022-10-30T05:45:47;42.38;;;28.13;;
45848;SDS011;31567;54.600;9.842;2022-10-30T05:49:27;39.97;;;26.95;;
45848;SDS011;31567;54.600;9.842;2022-10-30T05:53:07;42.70;;;28.38;;
45848;SDS011;31567;54.600;9.842;2022-10-30T05:56:47;41.53;;;26.98;;
45848;SDS011;31567;54.600;9.842;2022-10-30T06:00:28;43.17;;;25.73;;
45848;SDS011;31567;54.600;9.842;2022-10-30T06:04:09;48.60;;;27.83;;
45848;SDS011;31567;54.600;9.842;2022-10-30T06:07:49;44.00;;;27.80;;
45848;SDS011;31567;54.600;9.842;2022-10-30T06:11:28;45.60;;;27.10;;
45848;SDS011;31567;54.600;9.842;2022-10-30T06:15:08;36.83;;;26.20;;
45848;SDS011;31567;54.600;9.842;2022-10-30T06:18:48;40.00;;;26.67;;
45848;SDS011;31567;54.600;9.842;2022-10-30T06:22:27;43.22;;;25.40;;
45848;SDS011;31567;54.600;9.842;2022-10-30T06:26:07;33.50;;;24.13;;
45848;SDS011;31567;54.600;9.842;2022-10-30T06:29:46;35.13;;;23.83;;
45848;SDS011;31567;54.600;9.842;2022-10-30T06:33:26;35.50;;;23.85;;
45848;SDS011;31567;54.600;9.842;2022-10-30T06:37:05;36.85;;;24.00;;
45848;SDS011;31567;54.600;9.842;2022-10-30T06:40:46;39.97;;;24.27;;
45848;SDS011;31567;54.600;9.842;2022-10-30T06:44:26;39.95;;;25.38;;
45848;SDS011;31567;54.600;9.842;2022-10-30T06:48:05;33.65;;;23.63;;
45848;SDS011;31567;54.600;9.842;2022-10-30T06:51:46;36.83;;;23.02;;
45848;SDS011;31567;54.600;9.842;2022-10-30T06:55:28;35.88;;;22.30;;
45848;SDS011;31567;54.600;9.842;2022-10-30T06:59:07;33.05;;;22.85;;
45848;SDS011;31567;54.600;9.842;2022-10-30T07:02:55;34.13;;;22.17;;
45848;SDS011;31567;54.600;9.842;2022-10-30T07:06:38;33.20;;;22.40;;
45848;SDS011;31567;54.600;9.842;2022-10-30T07:19:32;25.90;;;19.70;;
45848;SDS011;31567;54.600;9.842;2022-10-30T07:23:12;26.40;;;20.67;;
45848;SDS011;31567;54.600;9.842;2022-10-30T07:26:51;28.27;;;20.35;;
45848;SDS011;31567;54.600;9.842;2022-10-30T07:30:31;31.38;;;19.60;;
45848;SDS011;31567;54.600;9.842;2022-10-30T07:34:10;29.95;;;19.13;;
45848;SDS011;31567;54.600;9.842;2022-10-30T07:37:50;26.92;;;19.90;;
45848;SDS011;31567;54.600;9.842;2022-10-30T07:41:30;26.80;;;19.92;;
45848;SDS011;31567;54.600;9.842;2022-10-30T07:45:09;28.10;;;20.55;;
45848;SDS011;31567;54.600;9.842;2022-10-30T07:48:49;29.75;;;20.38;;
45848;SDS011;31567;54.600;9.842;2022-10-30T07:52:31;31.17;;;19.48;;
45848;SDS011;31567;54.600;9.842;2022-10-30T07:56:11;25.77;;;18.20;;
45848;SDS011;31567;54.600;9.842;2022-10-30T07:59:50;25.38;;;17.20;;
45848;SDS011;31567;54.600;9.842;2022-10-30T08:03:30;29.08;;;17.60;;
45848;SDS011;31567;54.600;9.842;2022-10-30T08:07:09;28.90;;;17.10;;
45848;SDS011;31567;54.600;9.842;2022-10-30T08:10:49;24.10;;;16.55;;
45848;SDS011;31567;54.600;9.842;2022-10-30T08:14:28;24.17;;;16.58;;
45848;SDS011;31567;54.600;9.842;2022-10-30T08:18:08;23.55;;;17.88;;
45848;SDS011;31567;54.600;9.842;2022-10-30T08:21:47;27.42;;;17.27;;
45848;SDS011;31567;54.600;9.842;2022-10-30T08:25:28;26.08;;;16.88;;
45848;SDS011;31567;54.600;9.842;2022-10-30T08:29:08;22.90;;;15.73;;
45848;SDS011;31567;54.600;9.842;2022-10-30T08:32:48;24.17;;;17.02;;
45848;SDS011;31567;54.600;9.842;2022-10-30T08:36:27;26.77;;;16.95;;
45848;SDS011;31567;54.600;9.842;2022-10-30T08:40:07;21.80;;;16.23;;
45848;SDS011;31567;54.600;9.842;2022-10-30T08:43:48;23.38;;;15.98;;
45848;SDS011;31567;54.600;9.842;2022-10-30T08:47:27;24.10;;;16.08;;
45848;SDS011;31567;54.600;9.842;2022-10-30T08:51:07;24.50;;;17.70;;
45848;SDS011;31567;54.600;9.842;2022-10-30T08:54:46;25.90;;;16.40;;
45848;SDS011;31567;54.600;9.842;2022-10-30T08:58:26;22.95;;;15.85;;
45848;SDS011;31567;54.600;9.842;2022-10-30T09:02:06;22.80;;;16.88;;
45848;SDS011;31567;54.600;9.842;2022-10-30T09:05:46;27.10;;;14.95;;
45848;SDS011;31567;54.600;9.842;2022-10-30T09:09:26;22.75;;;16.02;;
45848;SDS011;31567;54.600;9.842;2022-10-30T09:13:05;21.42;;;15.70;;
45848;SDS011;31567;54.600;9.842;2022-10-30T09:16:45;27.05;;;16.23;;
45848;SDS011;31567;54.600;9.842;2022-10-30T09:20:25;24.33;;;16.25;;
45848;SDS011;31567;54.600;9.842;2022-10-30T09:24:05;24.23;;;15.43;;
45848;SDS011;31567;54.600;9.842;2022-10-30T09:27:45;27.73;;;15.85;;
45848;SDS011;31567;54.600;9.842;2022-10-30T09:31:25;25.00;;;16.70;;
45848;SDS011;31567;54.600;9.842;2022-10-30T09:35:04;25.35;;;16.63;;
45848;SDS011;31567;54.600;9.842;2022-10-30T09:38:44;25.55;;;16.40;;
45848;SDS011;31567;54.600;9.842;2022-10-30T09:42:30;25.48;;;16.90;;
45848;SDS011;31567;54.600;9.842;2022-10-30T09:50:33;27.95;;;17.02;;
45848;SDS011;31567;54.600;9.842;2022-10-30T09:55:09;27.15;;;17.15;;
45848;SDS011;31567;54.600;9.842;2022-10-30T10:03:02;24.50;;;16.80;;
45848;SDS011;31567;54.600;9.842;2022-10-30T10:06:51;27.08;;;16.33;;
45848;SDS011;31567;54.600;9.842;2022-10-30T10:10:37;27.48;;;17.80;;
45848;SDS011;31567;54.600;9.842;2022-10-30T10:14:20;25.77;;;16.85;;
45848;SDS011;31567;54.600;9.842;2022-10-30T10:18:15;24.95;;;16.98;;
45848;SDS011;31567;54.600;9.842;2022-10-30T10:21:59;28.20;;;17.70;;
45848;SDS011;31567;54.600;9.842;2022-10-30T10:25:40;26.95;;;17.20;;
45848;SDS011;31567;54.600;9.842;2022-10-30T10:29:32;26.63;;;17.17;;
45848;SDS011;31567;54.600;9.842;2022-10-30T10:33:25;23.08;;;16.85;;
45848;SDS011;31567;54.600;9.842;2022-10-30T10:41:46;32.95;;;18.17;;
45848;SDS011;31567;54.600;9.842;2022-10-30T10:53:26;29.40;;;17.05;;
45848;SDS011;31567;54.600;9.842;2022-10-30T10:57:33;26.30;;;17.23;;
45848;SDS011;31567;54.600;9.842;2022-10-30T11:01:17;30.60;;;17.98;;
45848;SDS011;31567;54.600;9.842;2022-10-30T11:05:05;22.15;;;17.00;;
45848;SDS011;31567;54.600;9.842;2022-10-30T11:09:01;29.63;;;17.98;;
45848;SDS011;31567;54.600;9.842;2022-10-30T11:29:33;25.40;;;18.27;;
45848;SDS011;31567;54.600;9.842;2022-10-30T11:49:55;31.40;;;18.75;;
45848;SDS011;31567;54.600;9.842;2022-10-30T12:01:26;27.13;;;18.55;;
45848;SDS011;31567;54.600;9.842;2022-10-30T12:12:49;28.10;;;17.73;;
45848;SDS011;31567;54.600;9.842;2022-10-30T12:16:29;29.25;;;16.92;;
45848;SDS011;31567;54.600;9.842;2022-10-30T12:20:13;30.60;;;17.30;;
45848;SDS011;31567;54.600;9.842;2022-10-30T12:23:55;29.73;;;16.70;;
45848;SDS011;31567;54.600;9.842;2022-10-30T12:27:39;23.30;;;16.17;;
45848;SDS011;31567;54.600;9.842;2022-10-30T12:31:19;25.33;;;17.27;;
45848;SDS011;31567;54.600;9.842;2022-10-30T12:35:15;27.55;;;16.33;;
45848;SDS011;31567;54.600;9.842;2022-10-30T12:39:45;27.33;;;15.95;;
45848;SDS011;31567;54.600;9.842;2022-10-30T12:43:19;24.75;;;15.52;;
45848;SDS011;31567;54.600;9.842;2022-10-30T12:47:19;25.63;;;15.10;;
45848;SDS011;31567;54.600;9.842;2022-10-30T12:51:20;27.58;;;15.80;;
45848;SDS011;31567;54.600;9.842;2022-10-30T12:55:34;26.65;;;15.20;;
45848;SDS011;31567;54.600;9.842;2022-10-30T12:59:32;29.17;;;14.57;;
45848;SDS011;31567;54.600;9.842;2022-10-30T13:03:40;20.13;;;13.35;;
45848;SDS011;31567;54.600;9.842;2022-10-30T13:07:34;25.55;;;13.68;;
45848;SDS011;31567;54.600;9.842;2022-10-30T13:12:21;26.23;;;13.93;;
45848;SDS011;31567;54.600;9.842;2022-10-30T13:15:44;26.65;;;14.93;;
45848;SDS011;31567;54.600;9.842;2022-10-30T13:19:27;21.80;;;12.80;;
45848;SDS011;31567;54.600;9.842;2022-10-30T13:23:09;19.05;;;12.23;;
45848;SDS011;31567;54.600;9.842;2022-10-30T13:30:53;19.58;;;12.50;;
45848;SDS011;31567;54.600;9.842;2022-10-30T13:38:24;20.75;;;12.70;;
45848;SDS011;31567;54.600;9.842;2022-10-30T13:42:24;20.05;;;12.50;;
45848;SDS011;31567;54.600;9.842;2022-10-30T13:53:47;25.80;;;14.10;;
45848;SDS011;31567;54.600;9.842;2022-10-30T13:57:45;23.10;;;12.85;;
45848;SDS011;31567;54.600;9.842;2022-10-30T14:05:57;19.67;;;12.23;;
45848;SDS011;31567;54.600;9.842;2022-10-30T14:10:07;23.15;;;12.82;;
45848;SDS011;31567;54.600;9.842;2022-10-30T14:13:54;18.52;;;12.52;;
45848;SDS011;31567;54.600;9.842;2022-10-30T14:21:51;22.23;;;12.52;;
45848;SDS011;31567;54.600;9.842;2022-10-30T14:25:36;18.75;;;12.38;;
45848;SDS011;31567;54.600;9.842;2022-10-30T14:29:29;26.48;;;13.52;;
45848;SDS011;31567;54.600;9.842;2022-10-30T14:41:16;23.92;;;13.25;;
45848;SDS011;31567;54.600;9.842;2022-10-30T14:57:22;21.15;;;12.25;;
45848;SDS011;31567;54.600;9.842;2022-10-30T15:05:24;21.17;;;12.30;;
45848;SDS011;31567;54.600;9.842;2022-10-30T15:13:19;22.63;;;12.13;;
45848;SDS011;31567;54.600;9.842;2022-10-30T15:17:00;20.15;;;12.40;;
45848;SDS011;31567;54.600;9.842;2022-10-30T15:20:40;21.73;;;12.43;;
45848;SDS011;31567;54.600;9.842;2022-10-30T15:24:22;22.92;;;12.88;;
45848;SDS011;31567;54.600;9.842;2022-10-30T15:28:03;19.70;;;12.73;;
45848;SDS011;31567;54.600;9.842;2022-10-30T15:31:43;25.20;;;12.52;;
45848;SDS011;31567;54.600;9.842;2022-10-30T15:35:24;22.08;;;12.07;;
45848;SDS011;31567;54.600;9.842;2022-10-30T15:39:06;24.92;;;12.35;;
45848;SDS011;31567;54.600;9.842;2022-10-30T15:42:50;25.65;;;13.48;;
45848;SDS011;31567;54.600;9.842;2022-10-30T15:46:30;22.60;;;12.95;;
45848;SDS011;31567;54.600;9.842;2022-10-30T15:50:10;24.90;;;13.32;;
45848;SDS011;31567;54.600;9.842;2022-10-30T15:53:51;23.30;;;12.68;;
45848;SDS011;31567;54.600;9.842;2022-10-30T15:57:35;24.20;;;12.80;;
45848;SDS011;31567;54.600;9.842;2022-10-30T16:01:25;24.90;;;13.93;;
45848;SDS011;31567;54.600;9.842;2022-10-30T16:05:19;19.02;;;13.52;;
45848;SDS011;31567;54.600;9.842;2022-10-30T16:09:02;25.13;;;12.20;;
45848;SDS011;31567;54.600;9.842;2022-10-30T16:12:42;24.80;;;12.52;;
45848;SDS011;31567;54.600;9.842;2022-10-30T16:16:24;23.45;;;14.13;;
45848;SDS011;31567;54.600;9.842;2022-10-30T16:20:05;21.50;;;13.07;;
45848;SDS011;31567;54.600;9.842;2022-10-30T16:23:48;25.88;;;14.75;;
45848;SDS011;31567;54.600;9.842;2022-10-30T16:27:32;29.75;;;14.95;;
45848;SDS011;31567;54.600;9.842;2022-10-30T16:31:20;22.35;;;15.48;;
45848;SDS011;31567;54.600;9.842;2022-10-30T16:35:02;28.45;;;16.13;;
45848;SDS011;31567;54.600;9.842;2022-10-30T16:38:45;24.48;;;15.15;;
45848;SDS011;31567;54.600;9.842;2022-10-30T16:42:26;24.52;;;15.57;;
45848;SDS011;31567;54.600;9.842;2022-10-30T16:49:55;22.67;;;14.32;;
45848;SDS011;31567;54.600;9.842;2022-10-30T16:53:36;24.02;;;15.02;;
45848;SDS011;31567;54.600;9.842;2022-10-30T16:57:18;26.15;;;14.35;;
45848;SDS011;31567;54.600;9.842;2022-10-30T17:01:07;25.88;;;15.38;;
45848;SDS011;31567;54.600;9.842;2022-10-30T17:04:48;34.65;;;18.75;;
45848;SDS011;31567;54.600;9.842;2022-10-30T17:08:40;26.13;;;15.20;;
45848;SDS011;31567;54.600;9.842;2022-10-30T17:12:27;17.30;;;12.43;;
45848;SDS011;31567;54.600;9.842;2022-10-30T17:20:00;27.20;;;16.00;;
45848;SDS011;31567;54.600;9.842;2022-10-30T17:23:45;37.10;;;19.70;;
45848;SDS011;31567;54.600;9.842;2022-10-30T17:27:35;27.17;;;16.88;;
45848;SDS011;31567;54.600;9.842;2022-10-30T17:31:26;22.83;;;14.68;;
45848;SDS011;31567;54.600;9.842;2022-10-30T17:35:16;33.85;;;19.15;;
45848;SDS011;31567;54.600;9.842;2022-10-30T17:38:57;34.17;;;18.15;;
45848;SDS011;31567;54.600;9.842;2022-10-30T17:42:36;30.15;;;14.75;;
45848;SDS011;31567;54.600;9.842;2022-10-30T17:46:17;29.27;;;15.38;;
45848;SDS011;31567;54.600;9.842;2022-10-30T17:49:57;29.65;;;18.42;;
45848;SDS011;31567;54.600;9.842;2022-10-30T17:53:37;50.70;;;22.50;;
45848;SDS011;31567;54.600;9.842;2022-10-30T17:57:17;64.28;;;24.02;;
45848;SDS011;31567;54.600;9.842;2022-10-30T18:00:57;117.47;;;23.15;;
45848;SDS011;31567;54.600;9.842;2022-10-30T18:04:37;77.25;;;21.90;;
45848;SDS011;31567;54.600;9.842;2022-10-30T18:08:16;425.23;;;26.05;;
45848;SDS011;31567;54.600;9.842;2022-10-30T18:11:56;505.40;;;27.77;;
45848;SDS011;31567;54.600;9.842;2022-10-30T18:15:36;57.47;;;16.67;;
45848;SDS011;31567;54.600;9.842;2022-10-30T18:19:18;39.88;;;18.52;;
45848;SDS011;31567;54.600;9.842;2022-10-30T18:22:58;348.92;;;26.77;;
45848;SDS011;31567;54.600;9.842;2022-10-30T18:26:38;624.95;;;37.38;;
45848;SDS011;31567;54.600;9.842;2022-10-30T18:30:17;143.40;;;20.30;;
45848;SDS011;31567;54.600;9.842;2022-10-30T18:33:57;301.65;;;19.77;;
45848;SDS011;31567;54.600;9.842;2022-10-30T18:37:37;377.15;;;20.60;;
45848;SDS011;31567;54.600;9.842;2022-10-30T18:41:18;744.03;;;37.67;;
45848;SDS011;31567;54.600;9.842;2022-10-30T18:45:00;315.60;;;24.20;;
45848;SDS011;31567;54.600;9.842;2022-10-30T18:48:40;89.25;;;19.15;;
45848;SDS011;31567;54.600;9.842;2022-10-30T18:52:19;29.33;;;17.30;;
45848;SDS011;31567;54.600;9.842;2022-10-30T18:55:59;30.50;;;17.50;;
45848;SDS011;31567;54.600;9.842;2022-10-30T18:59:38;42.30;;;19.15;;
45848;SDS011;31567;54.600;9.842;2022-10-30T19:03:18;534.55;;;27.58;;
45848;SDS011;31567;54.600;9.842;2022-10-30T19:06:57;114.00;;;17.73;;
45848;SDS011;31567;54.600;9.842;2022-10-30T19:10:39;280.33;;;22.67;;
45848;SDS011;31567;54.600;9.842;2022-10-30T19:14:20;73.18;;;16.95;;
45848;SDS011;31567;54.600;9.842;2022-10-30T19:18:00;115.05;;;14.05;;
45848;SDS011;31567;54.600;9.842;2022-10-30T19:21:40;132.75;;;15.90;;
45848;SDS011;31567;54.600;9.842;2022-10-30T19:25:23;215.85;;;16.30;;
45848;SDS011;31567;54.600;9.842;2022-10-30T19:29:05;26.35;;;14.27;;
45848;SDS011;31567;54.600;9.842;2022-10-30T19:32:44;43.05;;;17.25;;
45848;SDS011;31567;54.600;9.842;2022-10-30T19:36:34;23.75;;;16.55;;
45848;SDS011;31567;54.600;9.842;2022-10-30T19:40:19;27.75;;;17.13;;
45848;SDS011;31567;54.600;9.842;2022-10-30T19:44:01;120.18;;;17.13;;
45848;SDS011;31567;54.600;9.842;2022-10-30T19:47:41;569.40;;;23.98;;
45848;SDS011;31567;54.600;9.842;2022-10-30T19:51:21;222.73;;;14.60;;
45848;SDS011;31567;54.600;9.842;2022-10-30T19:55:00;454.45;;;19.55;;
45848;SDS011;31567;54.600;9.842;2022-10-30T19:58:40;466.42;;;24.73;;
45848;SDS011;31567;54.600;9.842;2022-10-30T20:02:19;545.42;;;29.73;;
45848;SDS011;31567;54.600;9.842;2022-10-30T20:05:59;410.92;;;26.70;;
45848;SDS011;31567;54.600;9.842;2022-10-30T20:09:39;342.17;;;22.73;;
45848;SDS011;31567;54.600;9.842;2022-10-30T20:13:18;349.90;;;27.08;;
45848;SDS011;31567;54.600;9.842;2022-10-30T20:16:58;395.25;;;24.75;;
45848;SDS011;31567;54.600;9.842;2022-10-30T20:20:39;358.70;;;23.50;;
45848;SDS011;31567;54.600;9.842;2022-10-30T20:24:22;181.27;;;20.83;;
45848;SDS011;31567;54.600;9.842;2022-10-30T20:28:03;153.00;;;19.90;;
45848;SDS011;31567;54.600;9.842;2022-10-30T20:32:10;139.07;;;19.10;;
45848;SDS011;31567;54.600;9.842;2022-10-30T20:35:50;177.27;;;22.80;;
45848;SDS011;31567;54.600;9.842;2022-10-30T20:39:30;124.38;;;18.40;;
45848;SDS011;31567;54.600;9.842;2022-10-30T20:43:11;170.82;;;18.60;;
45848;SDS011;31567;54.600;9.842;2022-10-30T20:46:53;158.30;;;17.30;;
45848;SDS011;31567;54.600;9.842;2022-10-30T20:50:34;135.63;;;16.20;;
45848;SDS011;31567;54.600;9.842;2022-10-30T20:54:13;169.48;;;23.30;;
45848;SDS011;31567;54.600;9.842;2022-10-30T20:57:53;167.35;;;24.50;;
45848;SDS011;31567;54.600;9.842;2022-10-30T21:01:33;118.63;;;19.38;;
45848;SDS011;31567;54.600;9.842;2022-10-30T21:05:12;145.95;;;19.00;;
45848;SDS011;31567;54.600;9.842;2022-10-30T21:08:52;148.40;;;18.17;;
45848;SDS011;31567;54.600;9.842;2022-10-30T21:12:31;210.93;;;19.98;;
45848;SDS011;31567;54.600;9.842;2022-10-30T21:16:11;228.88;;;23.25;;
45848;SDS011;31567;54.600;9.842;2022-10-30T21:19:50;279.30;;;26.83;;
45848;SDS011;31567;54.600;9.842;2022-10-30T21:23:30;220.60;;;20.23;;
45848;SDS011;31567;54.600;9.842;2022-10-30T21:27:09;217.73;;;24.42;;
45848;SDS011;31567;54.600;9.842;2022-10-30T21:30:49;187.90;;;21.98;;
45848;SDS011;31567;54.600;9.842;2022-10-30T21:34:28;309.50;;;21.77;;
45848;SDS011;31567;54.600;9.842;2022-10-30T21:38:08;364.48;;;31.73;;
45848;SDS011;31567;54.600;9.842;2022-10-30T21:41:48;181.52;;;27.10;;
45848;SDS011;31567;54.600;9.842;2022-10-30T21:45:28;245.32;;;27.83;;
45848;SDS011;31567;54.600;9.842;2022-10-30T21:49:08;213.10;;;23.52;;
45848;SDS011;31567;54.600;9.842;2022-10-30T21:52:51;266.45;;;25.17;;
45848;SDS011;31567;54.600;9.842;2022-10-30T21:56:30;221.77;;;24.50;;
45848;SDS011;31567;54.600;9.842;2022-10-30T22:00:10;415.35;;;34.40;;
45848;SDS011;31567;54.600;9.842;2022-10-30T22:03:50;243.48;;;22.73;;
45848;SDS011;31567;54.600;9.842;2022-10-30T22:07:30;278.40;;;28.90;;
45848;SDS011;31567;54.600;9.842;2022-10-30T22:11:09;174.00;;;25.55;;
45848;SDS011;31567;54.600;9.842;2022-10-30T22:14:49;138.20;;;22.52;;
45848;SDS011;31567;54.600;9.842;2022-10-30T22:18:28;156.02;;;26.95;;
45848;SDS011;31567;54.600;9.842;2022-10-30T22:22:08;67.80;;;18.25;;
45848;SDS011;31567;54.600;9.842;2022-10-30T22:25:55;72.63;;;15.32;;
45848;SDS011;31567;54.600;9.842;2022-10-30T22:29:35;68.10;;;14.52;;
45848;SDS011;31567;54.600;9.842;2022-10-30T22:33:14;59.75;;;14.40;;
45848;SDS011;31567;54.600;9.842;2022-10-30T22:36:54;54.60;;;16.58;;
45848;SDS011;31567;54.600;9.842;2022-10-30T22:40:33;48.97;;;16.60;;
45848;SDS011;31567;54.600;9.842;2022-10-30T22:44:13;42.30;;;18.25;;
45848;SDS011;31567;54.600;9.842;2022-10-30T22:47:56;31.05;;;16.55;;
45848;SDS011;31567;54.600;9.842;2022-10-30T22:51:36;33.08;;;16.98;;
45848;SDS011;31567;54.600;9.842;2022-10-30T22:55:16;56.22;;;18.02;;
45848;SDS011;31567;54.600;9.842;2022-10-30T22:58:56;71.97;;;17.83;;
45848;SDS011;31567;54.600;9.842;2022-10-30T23:02:39;71.30;;;18.52;;
45848;SDS011;31567;54.600;9.842;2022-10-30T23:06:18;138.25;;;21.08;;
45848;SDS011;31567;54.600;9.842;2022-10-30T23:09:58;192.98;;;19.75;;
45848;SDS011;31567;54.600;9.842;2022-10-30T23:13:37;282.63;;;27.10;;
45848;SDS011;31567;54.600;9.842;2022-10-30T23:17:18;149.38;;;21.73;;
45848;SDS011;31567;54.600;9.842;2022-10-30T23:21:09;166.20;;;26.92;;
45848;SDS011;31567;54.600;9.842;2022-10-30T23:24:50;153.15;;;22.33;;
45848;SDS011;31567;54.600;9.842;2022-10-30T23:28:30;172.48;;;23.42;;
45848;SDS011;31567;54.600;9.842;2022-10-30T23:32:10;165.52;;;24.45;;
45848;SDS011;31567;54.600;9.842;2022-10-30T23:35:49;133.93;;;25.10;;
45848;SDS011;31567;54.600;9.842;2022-10-30T23:39:29;74.90;;;20.65;;
45848;SDS011;31567;54.600;9.842;2022-10-30T23:43:08;90.28;;;18.75;;
45848;SDS011;31567;54.600;9.842;2022-10-30T23:46:48;78.65;;;21.40;;
45848;SDS011;31567;54.600;9.842;2022-10-30T23:50:27;118.22;;;23.65;;
45848;SDS011;31567;54.600;9.842;2022-10-30T23:54:07;72.20;;;15.27;;
45848;SDS011;31567;54.600;9.842;2022-10-30T23:57:47;159.18;;;21.92;;
